Time;durP1;ratioP1;P1;durP2;ratioP2;P2;SDS_P1;SDS_P2;PMS_P1;PMS_P2;Temp;Humidity;BMP_temperature;BMP_pressure;BME280_temperature;BME280_humidity;BME280_pressure;Samples;Min_cycle;Max_cycle;Signal;HPM_P1;HPM_P2
2023/12/09 00:00:24;;;;;;;;;13.50;11.75;;;;;7.36;100.00;100882.69;5020222;28;11138;-69
2023/12/09 00:02:50;;;;;;;;;14.00;12.50;;;;;7.34;100.00;100890.06;5047120;28;11051;-67
2023/12/09 00:05:17;;;;;;;;;15.75;14.00;;;;;7.31;100.00;100885.06;5039464;28;11309;-67
2023/12/09 00:07:43;;;;;;;;;14.75;13.50;;;;;7.34;100.00;100879.38;5049065;28;11202;-67
2023/12/09 00:10:10;;;;;;;;;16.75;13.75;;;;;7.30;100.00;100877.22;5046935;28;11034;-67
2023/12/09 00:12:36;;;;;;;;;11.50;11.50;;;;;7.29;100.00;100878.19;5032575;28;11106;-66
2023/12/09 00:15:04;;;;;;;;;13.25;13.00;;;;;7.28;100.00;100879.22;5044610;28;11094;-69
2023/12/09 00:17:32;;;;;;;;;10.75;10.75;;;;;7.28;100.00;100882.72;5032078;28;11168;-69
2023/12/09 00:19:59;;;;;;;;;11.00;10.50;;;;;7.31;100.00;100884.22;5037903;28;11116;-68
2023/12/09 00:22:26;;;;;;;;;20.25;16.75;;;;;7.25;100.00;100879.53;5045005;28;11080;-69
2023/12/09 00:24:53;;;;;;;;;14.50;13.75;;;;;7.25;100.00;100884.91;5042132;28;11275;-68
2023/12/09 00:27:19;;;;;;;;;16.00;13.25;;;;;7.27;100.00;100881.06;5048454;28;11715;-68
2023/12/09 00:29:46;;;;;;;;;16.25;15.00;;;;;7.25;100.00;100884.91;5023759;28;11175;-67
2023/12/09 00:32:12;;;;;;;;;21.50;19.00;;;;;7.20;100.00;100877.38;5047796;28;11106;-69
2023/12/09 00:34:39;;;;;;;;;18.50;17.00;;;;;7.19;100.00;100887.25;5032014;28;11067;-67
2023/12/09 00:37:05;;;;;;;;;10.00;9.50;;;;;7.19;100.00;100884.59;5035487;28;11081;-69
2023/12/09 00:39:32;;;;;;;;;16.25;13.75;;;;;7.23;100.00;100890.44;5042633;28;11014;-69
2023/12/09 00:41:58;;;;;;;;;17.75;14.75;;;;;7.19;100.00;100889.09;5029020;28;11198;-69
2023/12/09 00:44:25;;;;;;;;;15.75;15.25;;;;;7.23;100.00;100900.31;5039633;28;11270;-68
2023/12/09 00:46:52;;;;;;;;;19.50;11.50;;;;;7.16;100.00;100897.47;5044393;28;10963;-69
2023/12/09 00:49:18;;;;;;;;;13.50;9.00;;;;;7.23;100.00;100901.16;5039827;28;12292;-68
2023/12/09 00:51:45;;;;;;;;;13.25;12.50;;;;;7.27;100.00;100894.44;5047624;28;11093;-69
2023/12/09 00:54:11;;;;;;;;;14.50;12.25;;;;;7.25;100.00;100890.25;5039025;28;11110;-68
2023/12/09 00:56:38;;;;;;;;;12.25;10.50;;;;;7.28;100.00;100885.41;5040162;28;10997;-68
2023/12/09 00:59:05;;;;;;;;;9.00;9.00;;;;;7.29;100.00;100886.22;5048027;28;11003;-68
2023/12/09 01:01:33;;;;;;;;;13.50;10.50;;;;;7.30;100.00;100882.56;5048267;28;10968;-68
2023/12/09 01:04:01;;;;;;;;;10.50;10.00;;;;;7.33;100.00;100883.06;5039930;28;11078;-69
2023/12/09 01:06:29;;;;;;;;;11.25;11.25;;;;;7.33;100.00;100874.16;5047941;28;11053;-69
2023/12/09 01:08:55;;;;;;;;;13.50;12.00;;;;;7.30;100.00;100871.84;5047340;28;11142;-69
2023/12/09 01:11:23;;;;;;;;;17.75;14.00;;;;;7.27;100.00;100862.31;5032349;28;11244;-68
2023/12/09 01:13:50;;;;;;;;;11.00;10.25;;;;;7.24;100.00;100868.00;5031451;28;10971;-69
2023/12/09 01:16:16;;;;;;;;;11.75;9.50;;;;;7.28;100.00;100869.31;5027538;28;11091;-69
2023/12/09 01:18:43;;;;;;;;;14.00;9.50;;;;;7.32;100.00;100865.28;5037667;28;10789;-69
2023/12/09 01:21:09;;;;;;;;;13.75;10.75;;;;;7.32;100.00;100869.81;5041957;28;10905;-70
2023/12/09 01:23:37;;;;;;;;;10.25;10.25;;;;;7.34;100.00;100863.28;5028511;28;11033;-69
2023/12/09 01:26:04;;;;;;;;;13.00;12.50;;;;;7.28;100.00;100866.66;5010283;28;10929;-68
2023/12/09 01:28:30;;;;;;;;;14.25;13.75;;;;;7.28;100.00;100869.31;5040884;28;10901;-70
2023/12/09 01:30:57;;;;;;;;;12.00;6.25;;;;;7.29;100.00;100871.03;5044313;28;11003;-69
2023/12/09 01:33:23;;;;;;;;;14.00;11.00;;;;;7.30;100.00;100861.16;5045029;28;11109;-70
2023/12/09 01:35:50;;;;;;;;;15.50;13.75;;;;;7.24;100.00;100856.47;5041671;28;11018;-69
2023/12/09 01:38:17;;;;;;;;;12.75;10.25;;;;;7.23;100.00;100860.97;5035580;28;11051;-69
2023/12/09 01:40:43;;;;;;;;;14.00;9.75;;;;;7.24;100.00;100867.16;5042784;28;11056;-68
2023/12/09 01:43:10;;;;;;;;;16.50;13.75;;;;;7.25;100.00;100859.00;5016199;28;10964;-69
2023/12/09 01:45:37;;;;;;;;;12.50;10.50;;;;;7.21;100.00;100852.31;5016026;28;10976;-69
2023/12/09 01:48:04;;;;;;;;;9.25;9.25;;;;;7.19;100.00;100863.16;5046033;28;11100;-68
2023/12/09 01:50:31;;;;;;;;;15.75;13.00;;;;;7.18;100.00;100856.16;5044498;28;10855;-68
2023/12/09 01:52:58;;;;;;;;;11.50;11.25;;;;;7.19;100.00;100859.66;5030028;28;11225;-69
2023/12/09 01:55:24;;;;;;;;;16.00;14.50;;;;;7.16;100.00;100850.13;5046143;28;11798;-69
2023/12/09 01:57:52;;;;;;;;;17.75;13.75;;;;;7.11;100.00;100846.28;5038080;28;11052;-69
2023/12/09 02:00:19;;;;;;;;;10.00;10.00;;;;;7.16;100.00;100838.56;5023860;28;11090;-69
2023/12/09 02:02:48;;;;;;;;;12.25;11.25;;;;;7.14;100.00;100838.75;5034753;28;11022;-69
2023/12/09 02:05:14;;;;;;;;;12.00;10.25;;;;;7.13;100.00;100830.88;5031636;28;11003;-70
2023/12/09 02:07:41;;;;;;;;;12.75;12.50;;;;;7.13;100.00;100833.56;5051379;28;10964;-69
2023/12/09 02:10:09;;;;;;;;;8.75;7.50;;;;;7.12;100.00;100832.72;5049279;28;11687;-70
2023/12/09 02:12:42;;;;;;;;;13.75;11.25;;;;;7.10;100.00;100828.56;5050652;28;11567;-70
2023/12/09 02:15:19;;;;;;;;;13.50;9.75;;;;;7.11;100.00;100830.22;5025172;28;11010;-69
2023/12/09 02:17:52;;;;;;;;;14.75;13.25;;;;;7.14;100.00;100827.22;5040116;28;11015;-69
2023/12/09 02:20:19;;;;;;;;;10.25;9.00;;;;;7.10;100.00;100821.38;5023313;28;11243;-69
2023/12/09 02:22:46;;;;;;;;;9.75;8.50;;;;;7.08;100.00;100838.59;5049713;28;10904;-71
2023/12/09 02:25:12;;;;;;;;;14.00;11.75;;;;;7.09;100.00;100832.22;5046786;28;10812;-68
2023/12/09 02:27:54;;;;;;;;;11.00;10.50;;;;;7.01;100.00;100835.78;5022988;28;11061;-70
2023/12/09 02:31:22;;;;;;;;;9.50;7.00;;;;;7.01;100.00;100829.56;5040713;28;11191;-68
2023/12/09 02:33:49;;;;;;;;;16.00;13.75;;;;;6.97;100.00;100815.72;4939971;28;10826;-68
2023/12/09 02:36:20;;;;;;;;;13.50;12.00;;;;;6.96;100.00;100816.72;4965324;28;11109;-70
2023/12/09 02:38:49;;;;;;;;;15.50;10.00;;;;;6.94;100.00;100818.75;5014743;28;11217;-69
2023/12/09 02:41:16;;;;;;;;;14.25;12.25;;;;;6.92;100.00;100812.72;5042050;28;10956;-68
2023/12/09 02:43:45;;;;;;;;;13.00;11.50;;;;;6.86;100.00;100800.88;5019318;28;11282;-69
2023/12/09 02:46:13;;;;;;;;;16.00;14.00;;;;;6.86;100.00;100800.03;5034284;28;11537;-70
2023/12/09 02:48:40;;;;;;;;;12.50;11.50;;;;;6.87;100.00;100799.03;5045438;28;11206;-71
2023/12/09 02:51:07;;;;;;;;;14.50;11.50;;;;;6.83;100.00;100795.84;5047246;28;11342;-69
2023/12/09 02:53:34;;;;;;;;;15.00;14.50;;;;;6.83;100.00;100800.38;5037400;28;11052;-69
2023/12/09 02:56:01;;;;;;;;;11.00;10.25;;;;;6.84;100.00;100797.50;5048332;28;11257;-68
2023/12/09 02:58:27;;;;;;;;;16.50;14.00;;;;;6.79;100.00;100796.38;5047836;28;11850;-68
2023/12/09 03:00:54;;;;;;;;;20.75;16.00;;;;;6.79;100.00;100794.53;5043441;28;11386;-70
2023/12/09 03:03:20;;;;;;;;;15.50;15.25;;;;;6.76;100.00;100784.16;5027790;28;11331;-69
2023/12/09 03:05:47;;;;;;;;;14.75;14.75;;;;;6.75;100.00;100776.31;5045727;28;11290;-68
2023/12/09 03:08:13;;;;;;;;;19.25;17.25;;;;;6.67;100.00;100780.66;5033407;28;11333;-68
2023/12/09 03:10:40;;;;;;;;;21.25;16.50;;;;;6.67;100.00;100769.13;5045122;28;11296;-68
2023/12/09 03:13:06;;;;;;;;;23.75;17.00;;;;;6.69;100.00;100777.84;5026704;28;12010;-68
2023/12/09 03:15:32;;;;;;;;;17.75;15.00;;;;;6.62;100.00;100788.38;5049249;28;12212;-68
2023/12/09 03:17:59;;;;;;;;;14.00;13.25;;;;;6.64;100.00;100789.06;5013661;28;11513;-67
2023/12/09 03:20:26;;;;;;;;;18.00;15.50;;;;;6.71;100.00;100791.03;5043088;28;11374;-66
2023/12/09 03:22:53;;;;;;;;;15.50;14.75;;;;;6.70;100.00;100798.22;5044916;28;11472;-68
2023/12/09 03:25:19;;;;;;;;;15.00;13.50;;;;;6.66;100.00;100795.06;5043954;28;11284;-66
2023/12/09 03:27:46;;;;;;;;;18.25;17.25;;;;;6.62;100.00;100790.22;5027236;28;11159;-67
2023/12/09 03:30:12;;;;;;;;;15.25;13.50;;;;;6.63;100.00;100784.69;5037597;28;11572;-67
2023/12/09 03:32:39;;;;;;;;;21.00;16.75;;;;;6.58;100.00;100780.84;5027953;28;11511;-68
2023/12/09 03:35:07;;;;;;;;;12.50;9.50;;;;;6.63;100.00;100781.19;5042426;28;11625;-67
2023/12/09 03:37:33;;;;;;;;;19.50;12.75;;;;;6.65;100.00;100774.66;5041668;28;11290;-67
2023/12/09 03:40:00;;;;;;;;;12.25;12.25;;;;;6.65;100.00;100772.00;5039426;28;11310;-67
2023/12/09 03:42:27;;;;;;;;;13.50;11.25;;;;;6.60;100.00;100778.84;5014673;28;11183;-68
2023/12/09 03:44:54;;;;;;;;;9.50;9.50;;;;;6.59;100.00;100769.97;5012719;28;11240;-67
2023/12/09 03:47:20;;;;;;;;;12.75;10.00;;;;;6.57;100.00;100769.34;5047184;28;11199;-68
2023/12/09 03:49:55;;;;;;;;;14.25;12.50;;;;;6.63;100.00;100778.50;5047552;28;11191;-67
2023/12/09 03:52:21;;;;;;;;;10.00;10.00;;;;;6.63;100.00;100773.16;5046041;28;11348;-68
2023/12/09 03:54:48;;;;;;;;;13.50;10.25;;;;;6.60;100.00;100760.13;5045317;28;11137;-68
2023/12/09 03:57:14;;;;;;;;;18.50;14.00;;;;;6.62;100.00;100761.63;5028302;28;11277;-67
2023/12/09 03:59:41;;;;;;;;;15.25;13.00;;;;;6.63;100.00;100755.25;5047272;28;11321;-66
2023/12/09 04:02:08;;;;;;;;;14.50;11.75;;;;;6.56;100.00;100748.09;5031796;28;11204;-66
2023/12/09 04:04:38;;;;;;;;;8.25;8.25;;;;;6.55;100.00;100754.44;5028837;28;10957;-67
2023/12/09 04:07:05;;;;;;;;;17.00;13.75;;;;;6.60;100.00;100739.59;5042498;28;11962;-69
2023/12/09 04:09:32;;;;;;;;;15.00;12.75;;;;;6.55;100.00;100733.06;5028984;28;11072;-67
2023/12/09 04:11:59;;;;;;;;;6.50;6.50;;;;;6.61;100.00;100740.41;5031764;28;11090;-66
2023/12/09 04:14:26;;;;;;;;;9.25;8.75;;;;;6.62;100.00;100732.19;5047536;28;11005;-67
2023/12/09 04:16:52;;;;;;;;;14.00;10.00;;;;;6.61;100.00;100741.25;5011028;28;11622;-68
2023/12/09 04:19:19;;;;;;;;;8.75;7.00;;;;;6.60;100.00;100744.94;5045573;28;11704;-67
2023/12/09 04:21:45;;;;;;;;;14.00;11.25;;;;;6.57;100.00;100747.09;5042213;28;10954;-67
2023/12/09 04:24:12;;;;;;;;;14.50;12.00;;;;;6.54;100.00;100748.28;5038731;28;11016;-67
2023/12/09 04:26:38;;;;;;;;;18.25;11.25;;;;;6.50;100.00;100741.59;5029833;28;11108;-66
2023/12/09 04:29:06;;;;;;;;;13.25;12.50;;;;;6.45;100.00;100743.94;5039494;28;11061;-66
2023/12/09 04:31:33;;;;;;;;;16.50;15.50;;;;;6.52;100.00;100730.72;5029585;28;11179;-66
2023/12/09 04:33:59;;;;;;;;;9.25;9.25;;;;;6.51;100.00;100737.91;5041834;28;11270;-67
2023/12/09 04:36:26;;;;;;;;;13.00;10.75;;;;;6.43;100.00;100738.75;5046179;28;10968;-67
2023/12/09 04:38:53;;;;;;;;;10.50;10.00;;;;;6.46;100.00;100731.41;5043658;28;11262;-68
2023/12/09 04:41:19;;;;;;;;;11.25;8.75;;;;;6.48;100.00;100737.41;5044495;28;10922;-67
2023/12/09 04:43:46;;;;;;;;;10.50;10.00;;;;;6.46;100.00;100729.56;5045719;28;11016;-67
2023/12/09 04:46:12;;;;;;;;;16.75;13.50;;;;;6.42;100.00;100734.41;5040824;28;11136;-67
2023/12/09 04:48:39;;;;;;;;;8.25;8.25;;;;;6.41;100.00;100715.88;5041354;28;11263;-68
2023/12/09 04:51:06;;;;;;;;;16.00;13.25;;;;;6.40;100.00;100715.06;5021232;28;11099;-68
2023/12/09 04:53:33;;;;;;;;;10.50;6.50;;;;;6.48;100.00;100716.00;5027262;28;11332;-68
2023/12/09 04:55:59;;;;;;;;;14.25;10.00;;;;;6.47;100.00;100719.69;5034974;28;11144;-69
2023/12/09 04:58:25;;;;;;;;;13.75;10.75;;;;;6.42;100.00;100715.69;5046226;28;11201;-69
2023/12/09 05:00:52;;;;;;;;;12.50;12.50;;;;;6.43;100.00;100713.84;5018756;28;11364;-67
2023/12/09 05:03:19;;;;;;;;;11.25;9.50;;;;;6.39;100.00;100705.34;5048782;28;11271;-67
2023/12/09 05:05:45;;;;;;;;;9.25;9.25;;;;;6.42;100.00;100698.84;5033776;28;11166;-68
2023/12/09 05:08:12;;;;;;;;;21.00;11.75;;;;;6.36;100.00;100692.34;5047645;28;11148;-68
2023/12/09 05:10:38;;;;;;;;;14.00;10.00;;;;;6.37;100.00;100685.97;5045136;28;11523;-68
2023/12/09 05:13:05;;;;;;;;;12.50;11.50;;;;;6.25;100.00;100700.72;5022375;28;11739;-68
2023/12/09 05:15:31;;;;;;;;;15.75;12.00;;;;;6.25;100.00;100700.72;5047472;28;11227;-68
2023/12/09 05:17:59;;;;;;;;;16.75;13.25;;;;;6.24;100.00;100707.06;5034015;28;11066;-67
2023/12/09 05:20:25;;;;;;;;;14.25;14.00;;;;;6.17;100.00;100706.91;4998479;28;11169;-69
2023/12/09 05:22:52;;;;;;;;;17.75;12.75;;;;;6.19;100.00;100698.69;5047880;28;11182;-67
2023/12/09 05:25:18;;;;;;;;;16.25;14.00;;;;;6.23;100.00;100692.00;5031767;28;11188;-68
2023/12/09 05:27:45;;;;;;;;;14.00;12.00;;;;;6.21;100.00;100682.50;5010332;28;11214;-67
2023/12/09 05:30:12;;;;;;;;;5.25;5.25;;;;;6.24;100.00;100688.34;5021884;28;11185;-69
2023/12/09 05:32:38;;;;;;;;;15.00;12.50;;;;;6.29;100.00;100675.31;5042725;28;11209;-68
2023/12/09 05:35:05;;;;;;;;;14.25;12.25;;;;;6.31;100.00;100675.13;5047870;28;11304;-67
2023/12/09 05:37:32;;;;;;;;;19.00;11.00;;;;;6.32;100.00;100676.78;5024253;28;11155;-67
2023/12/09 05:39:58;;;;;;;;;14.00;9.50;;;;;6.39;100.00;100675.94;5034196;28;11550;-68
2023/12/09 05:42:25;;;;;;;;;12.50;12.50;;;;;6.30;100.00;100671.63;5046374;28;11263;-68
2023/12/09 05:44:52;;;;;;;;;19.50;17.25;;;;;6.28;100.00;100660.28;5043739;28;11498;-67
2023/12/09 05:47:19;;;;;;;;;13.50;12.50;;;;;6.35;100.00;100657.72;5025829;28;11553;-68
2023/12/09 05:49:45;;;;;;;;;19.00;16.50;;;;;6.34;100.00;100664.09;5045592;28;11304;-68
2023/12/09 05:52:12;;;;;;;;;14.25;9.75;;;;;6.39;100.00;100656.38;5030265;28;11493;-68
2023/12/09 05:54:39;;;;;;;;;15.00;13.00;;;;;6.30;100.00;100644.88;5039648;28;12154;-67
2023/12/09 05:57:05;;;;;;;;;16.00;13.00;;;;;6.34;100.00;100640.03;5032238;28;11262;-68
2023/12/09 05:59:32;;;;;;;;;14.50;13.00;;;;;6.31;100.00;100640.38;5043086;28;11121;-68
2023/12/09 06:01:58;;;;;;;;;18.50;17.75;;;;;6.31;100.00;100629.69;5044369;28;11139;-67
2023/12/09 06:04:25;;;;;;;;;14.00;13.75;;;;;6.35;100.00;100631.00;5049135;28;11139;-70
2023/12/09 06:06:51;;;;;;;;;15.00;13.00;;;;;6.32;100.00;100626.00;5055737;28;11302;-70
2023/12/09 06:09:18;;;;;;;;;12.50;12.50;;;;;6.34;100.00;100622.16;5039534;28;11293;-69
2023/12/09 06:11:46;;;;;;;;;15.25;14.50;;;;;6.32;100.00;100615.28;5048686;28;11446;-70
2023/12/09 06:14:12;;;;;;;;;18.25;14.00;;;;;6.29;100.00;100605.81;5033779;28;12223;-70
2023/12/09 06:16:39;;;;;;;;;13.00;13.00;;;;;6.36;100.00;100606.78;5033085;28;11211;-69
2023/12/09 06:19:05;;;;;;;;;16.00;13.75;;;;;6.39;100.00;100608.25;5041863;28;11217;-70
2023/12/09 06:21:32;;;;;;;;;21.00;14.00;;;;;6.38;100.00;100611.94;5039407;28;11199;-69
2023/12/09 06:23:58;;;;;;;;;18.75;16.00;;;;;6.32;100.00;100604.59;5030077;28;11651;-71
2023/12/09 06:26:25;;;;;;;;;23.50;17.00;;;;;6.33;100.00;100604.44;5017559;28;11228;-69
2023/12/09 06:28:51;;;;;;;;;15.75;15.00;;;;;6.27;100.00;100602.44;5041906;28;11623;-70
2023/12/09 06:31:18;;;;;;;;;17.25;16.75;;;;;6.35;100.00;100601.59;5036468;28;11940;-69
2023/12/09 06:33:44;;;;;;;;;14.50;14.50;;;;;6.36;100.00;100595.22;5028887;28;11323;-69
2023/12/09 06:36:11;;;;;;;;;22.25;18.75;;;;;6.36;100.00;100587.22;5042835;28;11077;-70
2023/12/09 06:38:39;;;;;;;;;18.50;18.00;;;;;6.37;100.00;100570.19;5044526;28;11315;-69
2023/12/09 06:41:09;;;;;;;;;20.75;19.25;;;;;6.39;100.00;100573.50;5039501;28;11539;-70
2023/12/09 06:43:35;;;;;;;;;22.00;17.50;;;;;6.38;100.00;100559.31;5040452;28;11388;-70
2023/12/09 06:46:02;;;;;;;;;18.75;18.00;;;;;6.42;100.00;100557.13;5005936;28;11567;-69
2023/12/09 06:48:28;;;;;;;;;22.00;18.75;;;;;6.44;100.00;100558.63;5025547;28;11224;-68
2023/12/09 06:50:56;;;;;;;;;23.50;18.25;;;;;6.49;100.00;100554.59;5026009;28;11387;-69
2023/12/09 06:53:22;;;;;;;;;23.25;17.75;;;;;6.52;100.00;100546.22;5041906;28;11534;-70
2023/12/09 06:55:49;;;;;;;;;30.50;19.50;;;;;6.46;100.00;100542.41;5041815;28;11396;-69
2023/12/09 06:58:16;;;;;;;;;20.25;17.00;;;;;6.50;100.00;100532.19;5045151;28;11617;-70
2023/12/09 07:00:43;;;;;;;;;17.25;15.25;;;;;6.59;100.00;100533.81;5045660;28;11827;-69
2023/12/09 07:03:11;;;;;;;;;20.50;16.75;;;;;6.56;100.00;100535.00;5032093;28;11715;-69
2023/12/09 07:05:38;;;;;;;;;22.50;17.75;;;;;6.55;100.00;100530.66;5031493;28;11519;-69
2023/12/09 07:08:04;;;;;;;;;22.50;18.75;;;;;6.56;100.00;100531.47;5039848;28;11662;-69
2023/12/09 07:10:31;;;;;;;;;20.75;18.50;;;;;6.51;100.00;100523.16;5038746;28;11556;-69
2023/12/09 07:12:57;;;;;;;;;25.75;20.00;;;;;6.46;100.00;100510.31;5012704;28;11525;-70
2023/12/09 07:15:24;;;;;;;;;22.50;20.75;;;;;6.46;100.00;100506.81;5030679;28;11641;-69
2023/12/09 07:17:50;;;;;;;;;19.75;18.00;;;;;6.51;100.00;100499.91;5034757;28;11257;-69
2023/12/09 07:20:17;;;;;;;;;20.50;18.75;;;;;6.46;100.00;100509.50;5026114;28;11502;-68
2023/12/09 07:22:44;;;;;;;;;24.25;21.50;;;;;6.47;100.00;100506.63;5023364;28;11556;-70
2023/12/09 07:25:10;;;;;;;;;27.50;26.25;;;;;6.40;100.00;100490.47;5038419;28;11516;-70
2023/12/09 07:27:37;;;;;;;;;26.50;22.00;;;;;6.50;100.00;100497.44;5039190;28;11568;-70
2023/12/09 07:30:05;;;;;;;;;21.25;18.50;;;;;6.56;100.00;100502.06;5045765;28;11526;-69
2023/12/09 07:32:32;;;;;;;;;23.25;19.75;;;;;6.59;100.00;100499.03;5031067;28;11278;-68
2023/12/09 07:34:58;;;;;;;;;21.25;18.50;;;;;6.54;100.00;100504.91;5028998;28;11520;-70
2023/12/09 07:37:25;;;;;;;;;19.75;16.50;;;;;6.46;100.00;100498.78;5038237;28;11490;-70
2023/12/09 07:39:52;;;;;;;;;19.50;17.00;;;;;6.50;100.00;100500.94;5047291;28;11237;-69
2023/12/09 07:42:19;;;;;;;;;29.00;19.25;;;;;6.47;100.00;100495.09;5041804;28;11238;-69
2023/12/09 07:44:45;;;;;;;;;24.25;20.25;;;;;6.48;100.00;100470.84;5044929;28;11409;-69
2023/12/09 07:47:12;;;;;;;;;16.50;15.50;;;;;6.56;100.00;100486.00;5030303;28;11545;-70
2023/12/09 07:49:38;;;;;;;;;20.75;17.75;;;;;6.65;100.00;100476.94;5028087;28;11391;-69
2023/12/09 07:52:05;;;;;;;;;20.25;19.75;;;;;6.70;100.00;100479.91;5049552;28;11501;-69
2023/12/09 07:54:32;;;;;;;;;18.00;14.00;;;;;6.75;100.00;100476.72;5049700;28;11219;-70
2023/12/09 07:56:58;;;;;;;;;20.75;19.75;;;;;6.72;100.00;100469.84;5051150;28;11306;-68
2023/12/09 07:59:25;;;;;;;;;22.50;20.00;;;;;6.71;100.00;100470.88;5024459;28;11253;-70
2023/12/09 08:01:51;;;;;;;;;22.25;21.00;;;;;6.71;100.00;100470.88;5026043;28;11538;-70
2023/12/09 08:04:18;;;;;;;;;20.00;17.75;;;;;6.73;100.00;100471.53;5043758;28;11902;-70
2023/12/09 08:06:44;;;;;;;;;30.50;20.50;;;;;6.73;100.00;100474.22;5042990;28;11300;-70
2023/12/09 08:09:11;;;;;;;;;25.25;18.50;;;;;6.78;100.00;100481.72;5046870;28;11453;-71
2023/12/09 08:11:37;;;;;;;;;18.25;18.25;;;;;6.71;100.00;100465.53;5038106;28;11594;-70
2023/12/09 08:14:04;;;;;;;;;15.00;13.25;;;;;6.68;100.00;100460.53;5044246;28;11536;-71
2023/12/09 08:16:33;;;;;;;;;21.25;19.50;;;;;6.67;100.00;100448.16;5040748;28;11198;-70
2023/12/09 08:19:00;;;;;;;;;21.75;16.75;;;;;6.67;100.00;100438.31;5037207;28;11285;-71
2023/12/09 08:21:26;;;;;;;;;17.25;15.00;;;;;6.72;100.00;100437.75;5046642;28;11269;-71
2023/12/09 08:23:54;;;;;;;;;16.50;16.50;;;;;6.71;100.00;100433.44;5050637;28;11402;-71
2023/12/09 08:26:20;;;;;;;;;18.50;18.50;;;;;6.73;100.00;100412.69;5029498;28;11186;-71
2023/12/09 08:28:47;;;;;;;;;17.25;16.25;;;;;6.76;100.00;100412.31;5043959;28;11147;-71
2023/12/09 08:31:13;;;;;;;;;16.50;13.75;;;;;6.76;100.00;100412.31;5015856;28;11287;-69
2023/12/09 08:33:40;;;;;;;;;16.75;14.00;;;;;6.78;100.00;100412.97;5040776;28;11140;-67
2023/12/09 08:36:08;;;;;;;;;21.75;19.00;;;;;6.75;100.00;100416.00;5045784;28;11219;-70
2023/12/09 08:38:35;;;;;;;;;14.00;12.75;;;;;6.80;100.00;100408.28;5049152;28;11560;-71
2023/12/09 08:41:01;;;;;;;;;19.00;17.00;;;;;6.77;100.00;100397.94;5048220;28;11215;-70
2023/12/09 08:43:28;;;;;;;;;13.75;12.00;;;;;6.83;100.00;100380.34;5047953;28;11161;-71
2023/12/09 08:45:55;;;;;;;;;20.50;17.25;;;;;6.86;100.00;100370.09;5041861;28;11255;-69
2023/12/09 08:48:23;;;;;;;;;19.25;17.00;;;;;6.82;100.00;100363.47;5045431;28;11225;-71
2023/12/09 08:50:50;;;;;;;;;16.25;14.00;;;;;6.85;100.00;100368.44;5043113;28;11538;-70
2023/12/09 08:53:17;;;;;;;;;14.50;14.50;;;;;6.73;100.00;100369.91;5028580;28;11793;-71
2023/12/09 08:55:44;;;;;;;;;18.75;11.50;;;;;6.80;100.00;100362.78;5042051;28;11254;-72
2023/12/09 08:58:10;;;;;;;;;16.75;15.50;;;;;6.79;100.00;100353.09;5044068;28;11857;-70
2023/12/09 09:00:37;;;;;;;;;19.50;17.50;;;;;6.76;100.00;100358.00;5043477;28;11127;-70
2023/12/09 09:03:04;;;;;;;;;14.00;12.25;;;;;6.86;100.00;100355.91;5042357;28;11170;-71
2023/12/09 09:05:30;;;;;;;;;15.25;13.25;;;;;6.89;100.00;100343.00;5036959;28;11146;-70
2023/12/09 09:07:57;;;;;;;;;10.00;10.00;;;;;6.96;100.00;100348.44;5041135;28;11208;-70
2023/12/09 09:10:23;;;;;;;;;11.25;9.75;;;;;6.97;100.00;100352.78;5044542;28;11050;-71
2023/12/09 09:12:50;;;;;;;;;11.25;10.50;;;;;7.02;100.00;100346.88;5047872;28;11177;-71
2023/12/09 09:15:16;;;;;;;;;15.25;12.00;;;;;6.95;100.00;100336.06;5046631;28;10919;-68
2023/12/09 09:17:43;;;;;;;;;13.00;11.50;;;;;6.94;100.00;100337.09;5043924;28;11876;-69
2023/12/09 09:20:10;;;;;;;;;10.50;10.00;;;;;7.03;100.00;100327.97;5035635;28;11024;-69
2023/12/09 09:22:37;;;;;;;;;10.50;10.00;;;;;7.04;100.00;100321.59;5028023;28;11050;-69
2023/12/09 09:25:04;;;;;;;;;9.00;8.00;;;;;6.99;100.00;100317.81;5028678;28;11012;-69
2023/12/09 09:27:31;;;;;;;;;9.00;9.00;;;;;6.91;100.00;100300.81;5034943;28;10902;-68
2023/12/09 09:29:57;;;;;;;;;12.00;10.00;;;;;6.97;100.00;100312.66;5025870;28;10906;-69
2023/12/09 09:32:24;;;;;;;;;10.75;9.00;;;;;7.00;100.00;100290.03;5031744;28;10940;-70
2023/12/09 09:34:51;;;;;;;;;8.25;6.25;;;;;7.05;100.00;100277.78;5024834;28;11200;-69
2023/12/09 09:37:18;;;;;;;;;12.00;8.00;;;;;7.05;100.00;100268.88;5026026;28;10817;-70
2023/12/09 09:39:44;;;;;;;;;11.75;9.75;;;;;6.98;100.00;100263.47;5031753;28;10880;-70
2023/12/09 09:42:36;;;;;;;;;10.00;6.00;;;;;7.01;100.00;100256.91;5057221;28;10949;-69
2023/12/09 09:45:22;;;;;;;;;8.25;6.50;;;;;7.02;100.00;100243.34;5030748;28;10848;-70
2023/12/09 09:47:55;;;;;;;;;9.75;7.25;;;;;7.09;100.00;100238.06;5044812;28;11600;-68
2023/12/09 09:50:24;;;;;;;;;11.75;9.75;;;;;7.04;100.00;100235.13;5042860;28;11583;-70
2023/12/09 09:52:52;;;;;;;;;8.75;5.50;;;;;7.06;100.00;100228.59;5046909;28;11055;-70
2023/12/09 09:55:25;;;;;;;;;8.50;5.75;;;;;7.01;100.00;100219.44;5045012;28;10865;-70
2023/12/09 09:57:52;;;;;;;;;9.25;5.75;;;;;7.04;100.00;100211.03;5042208;28;10761;-69
2023/12/09 10:00:21;;;;;;;;;6.75;5.50;;;;;7.04;100.00;100203.84;5043372;28;10930;-70
2023/12/09 10:02:49;;;;;;;;;4.50;3.25;;;;;7.07;100.00;100206.16;5044446;28;10916;-68
2023/12/09 10:05:20;;;;;;;;;7.00;6.00;;;;;7.10;100.00;100203.09;5019041;28;10791;-69
2023/12/09 10:07:47;;;;;;;;;6.00;5.00;;;;;7.11;100.00;100204.75;5028311;28;10689;-70
2023/12/09 10:10:14;;;;;;;;;5.00;5.00;;;;;7.06;100.00;100193.78;5042776;28;11422;-69
2023/12/09 10:12:42;;;;;;;;;6.00;5.50;;;;;7.14;100.00;100187.50;5041080;28;10791;-70
2023/12/09 10:15:09;;;;;;;;;6.00;5.75;;;;;7.13;100.00;100167.94;5041614;28;10820;-70
2023/12/09 10:17:36;;;;;;;;;8.50;8.00;;;;;7.14;100.00;100180.28;5032331;28;10793;-66
2023/12/09 10:20:05;;;;;;;;;10.00;6.00;;;;;7.08;100.00;100167.66;5029252;28;10673;-70
2023/12/09 10:22:32;;;;;;;;;4.75;4.75;;;;;7.20;100.00;100151.94;5042677;28;10782;-69
2023/12/09 10:24:59;;;;;;;;;7.00;6.50;;;;;7.28;100.00;100157.16;5031538;28;10730;-69
2023/12/09 10:27:25;;;;;;;;;5.00;5.00;;;;;7.21;100.00;100140.25;5048140;28;10695;-70
2023/12/09 10:29:54;;;;;;;;;7.25;6.00;;;;;7.19;100.00;100131.56;5029479;28;10777;-70
2023/12/09 10:32:21;;;;;;;;;6.75;6.00;;;;;7.22;100.00;100125.81;5045530;28;10774;-70
2023/12/09 10:34:48;;;;;;;;;6.00;6.00;;;;;7.30;100.00;100112.31;5048487;28;10711;-68
2023/12/09 10:37:17;;;;;;;;;6.00;5.00;;;;;7.33;100.00;100097.69;5032082;28;11350;-69
2023/12/09 10:39:48;;;;;;;;;8.00;5.75;;;;;7.34;100.00;100092.19;5031260;28;10676;-70
2023/12/09 10:42:14;;;;;;;;;6.75;6.75;;;;;7.32;100.00;100070.09;5050554;28;10742;-70
2023/12/09 10:44:41;;;;;;;;;9.00;4.50;;;;;7.39;100.00;100076.34;5041036;28;10885;-68
2023/12/09 10:47:08;;;;;;;;;5.25;5.25;;;;;7.40;100.00;100069.16;5047772;28;11501;-69
2023/12/09 10:49:35;;;;;;;;;10.25;6.75;;;;;7.32;100.00;100062.06;5049089;28;10756;-69
2023/12/09 10:52:02;;;;;;;;;5.25;5.00;;;;;7.41;100.00;100038.66;5040577;28;10703;-69
2023/12/09 10:54:28;;;;;;;;;3.00;3.00;;;;;7.43;100.00;100018.72;5042637;28;10610;-68
2023/12/09 10:56:58;;;;;;;;;9.50;6.00;;;;;7.43;100.00;100018.72;5027581;28;10669;-68
2023/12/09 10:59:26;;;;;;;;;6.00;6.00;;;;;7.44;100.00;99990.09;5040204;28;10638;-69
2023/12/09 11:01:53;;;;;;;;;4.50;4.50;;;;;7.34;100.00;99977.06;5043339;28;10652;-72
2023/12/09 11:04:20;;;;;;;;;10.00;6.00;;;;;7.32;100.00;99975.59;5041589;28;10595;-70
2023/12/09 11:06:50;;;;;;;;;5.00;3.00;;;;;7.31;100.00;99955.19;5038172;28;10595;-71
2023/12/09 11:09:18;;;;;;;;;7.00;3.50;;;;;7.36;100.00;99961.59;5043211;28;10755;-70
2023/12/09 11:11:45;;;;;;;;;6.25;3.75;;;;;7.40;100.00;99932.59;5043575;28;10647;-72